createdAt,value
2024-05-09T00:00:39.266Z,96332.75
2024-05-09T00:03:46.886Z,96335.59
2024-05-09T00:06:51.743Z,96331.47
2024-05-09T00:09:50.910Z,96337.94
2024-05-09T00:12:55.698Z,96336.13
2024-05-09T00:16:01.753Z,96342.31
2024-05-09T00:19:00.269Z,96342.78
2024-05-09T00:22:06.731Z,96342.41
2024-05-09T00:25:06.131Z,96337.94
2024-05-09T00:28:10.705Z,96332.31
2024-05-09T00:31:23.728Z,96336.56
2024-05-09T00:34:21.880Z,96333.94
2024-05-09T00:37:26.741Z,96326.66
2024-05-09T00:40:35.360Z,96337.59
2024-05-09T00:43:44.805Z,96330.31
2024-05-09T00:46:44.484Z,96336.19
2024-05-09T00:49:49.879Z,96333.03
2024-05-09T00:52:55.775Z,96333.28
2024-05-09T00:55:56.800Z,96338.84
2024-05-09T00:59:03.854Z,96329.91
2024-05-09T01:02:02.273Z,96326.47
2024-05-09T01:05:06.866Z,96328.47
2024-05-09T01:08:06.057Z,96335.75
2024-05-09T01:11:10.877Z,96335.94
2024-05-09T01:14:09.143Z,96331.28
2024-05-09T01:17:15.826Z,96335.94
2024-05-09T01:20:20.167Z,96335.28
2024-05-09T01:23:33.923Z,96336.13
2024-05-09T01:26:32.136Z,96327.56
2024-05-09T01:29:36.866Z,96328.13
2024-05-09T01:32:35.267Z,96322.19
2024-05-09T01:35:46.782Z,96322.72
2024-05-09T01:38:46.106Z,96322.13
2024-05-09T01:41:50.805Z,96330.19
2024-05-09T01:44:56.781Z,96331.56
2024-05-09T01:47:56.142Z,96332.09
2024-05-09T01:51:00.897Z,96327.84
2024-05-09T01:54:06.895Z,96333.66
2024-05-09T01:57:05.850Z,96340.13
2024-05-09T02:00:07.642Z,96329.09
2024-05-09T02:03:16.480Z,96334.94
2024-05-09T02:06:22.817Z,96336.94
2024-05-09T02:09:29.795Z,96330.09
2024-05-09T02:12:28.216Z,96334.75
2024-05-09T02:15:33.824Z,96324.91
2024-05-09T02:18:32.155Z,96328.75
2024-05-09T02:21:40.813Z,96323.19
2024-05-09T02:24:46.818Z,96322.91
2024-05-09T02:27:45.204Z,96306.97
2024-05-09T02:30:49.822Z,96310.97
2024-05-09T02:33:55.004Z,96314.94
2024-05-09T02:36:56.144Z,96318.78
2024-05-09T02:40:00.842Z,96318.31
2024-05-09T02:42:59.932Z,96320.00
2024-05-09T02:46:04.865Z,96319.72
2024-05-09T02:49:04.076Z,96328.31
2024-05-09T02:52:09.868Z,96333.59
2024-05-09T02:55:14.955Z,96328.22
2024-05-09T02:58:13.875Z,96330.56
2024-05-09T03:01:12.112Z,96339.28
2024-05-09T03:04:17.890Z,96336.06
2024-05-09T03:07:22.871Z,96333.31
2024-05-09T03:10:25.686Z,96326.94
2024-05-09T03:13:33.868Z,96334.53
2024-05-09T03:16:38.881Z,96342.97
2024-05-09T03:19:38.337Z,96336.22
2024-05-09T03:22:43.899Z,96331.97
2024-05-09T03:25:57.154Z,96341.84
2024-05-09T03:29:01.895Z,96342.81
2024-05-09T03:32:01.390Z,96339.22
2024-05-09T03:35:13.006Z,96348.56
2024-05-09T03:38:19.029Z,96344.84
2024-05-09T03:41:23.953Z,96342.34
2024-05-09T03:44:22.247Z,96348.25
2024-05-09T03:47:27.111Z,96339.88
2024-05-09T03:50:35.557Z,96345.63
2024-05-09T03:53:41.999Z,96345.81
2024-05-09T03:56:40.260Z,96357.34
2024-05-09T03:59:45.898Z,96355.38
2024-05-09T04:02:54.003Z,96351.72
2024-05-09T04:05:53.067Z,96351.53
2024-05-09T04:08:57.888Z,96348.75
2024-05-09T04:11:57.240Z,96355.97
2024-05-09T04:15:01.913Z,96348.69
2024-05-09T04:18:01.914Z,96347.72
2024-05-09T04:21:09.021Z,96354.41
2024-05-09T04:24:08.013Z,96348.13
2024-05-09T04:27:12.927Z,96349.88
2024-05-09T04:30:26.231Z,96352.53
2024-05-09T04:33:41.058Z,96352.81
2024-05-09T04:36:41.624Z,96354.38
2024-05-09T04:39:46.986Z,96353.69
2024-05-09T04:42:54.959Z,96358.50
2024-05-09T04:45:53.500Z,96357.09
2024-05-09T04:49:00.031Z,96362.94
2024-05-09T04:51:59.310Z,96366.97
2024-05-09T04:55:04.941Z,96370.69
2024-05-09T04:58:12.151Z,96378.88
2024-05-09T05:01:17.985Z,96373.75
2024-05-09T05:04:16.442Z,96371.00
2024-05-09T05:07:21.950Z,96379.66
2024-05-09T05:10:25.494Z,96383.06
2024-05-09T05:13:36.724Z,96382.13
2024-05-09T05:16:36.369Z,96374.16
2024-05-09T05:19:42.022Z,96370.59
2024-05-09T05:22:43.714Z,96369.16
2024-05-09T05:25:50.183Z,96364.78
2024-05-09T05:28:55.097Z,96363.69
2024-05-09T05:31:54.143Z,96357.94
2024-05-09T05:34:59.020Z,96363.94
2024-05-09T05:37:57.124Z,96366.63
2024-05-09T05:41:02.102Z,96367.53
2024-05-09T05:44:00.100Z,96358.31
2024-05-09T05:47:04.998Z,96361.97
2024-05-09T05:50:07.081Z,96359.81
2024-05-09T05:53:16.074Z,96366.25
2024-05-09T05:56:21.095Z,96360.44
2024-05-09T05:59:19.417Z,96363.41
2024-05-09T06:02:24.074Z,96350.50
2024-05-09T06:05:29.167Z,96359.16
2024-05-09T06:08:35.035Z,96351.31
2024-05-09T06:11:33.374Z,96359.00
2024-05-09T06:14:39.092Z,96350.28
2024-05-09T06:17:38.429Z,96351.81
2024-05-09T06:20:44.514Z,96361.09
2024-05-09T06:23:47.454Z,96355.84
2024-05-09T06:26:42.375Z,96362.06
2024-05-09T06:29:27.892Z,96361.72
2024-05-09T06:32:13.447Z,96364.03
2024-05-09T06:34:59.035Z,96367.78
2024-05-09T06:37:44.635Z,96373.31
2024-05-09T06:40:37.161Z,96360.41
2024-05-09T06:43:24.743Z,96371.81
2024-05-09T06:46:10.146Z,96371.72
2024-05-09T06:48:57.051Z,96367.97
2024-05-09T06:51:42.879Z,96365.00
2024-05-09T06:54:28.227Z,96358.59
2024-05-09T06:57:13.928Z,96370.16
2024-05-09T07:00:00.881Z,96374.53
2024-05-09T07:02:46.391Z,96374.00
2024-05-09T07:05:31.824Z,96364.06
2024-05-09T07:08:18.002Z,96365.50
2024-05-09T07:11:04.558Z,96365.97
2024-05-09T07:13:50.343Z,96365.69
2024-05-09T07:16:36.082Z,96365.78
2024-05-09T07:19:21.398Z,96362.81
2024-05-09T07:22:07.237Z,96365.06
2024-05-09T07:24:53.807Z,96370.53
2024-05-09T07:27:39.204Z,96359.88
2024-05-09T07:30:32.671Z,96364.69
2024-05-09T07:33:27.385Z,96359.94
2024-05-09T07:36:19.216Z,96370.09
2024-05-09T07:39:05.817Z,96362.38
2024-05-09T07:41:51.329Z,96361.44
2024-05-09T07:44:36.719Z,96355.56
2024-05-09T07:48:56.521Z,96360.41
2024-05-09T07:53:37.830Z,96359.53
2024-05-09T07:56:23.161Z,96366.19
2024-05-09T07:59:09.798Z,96367.50
2024-05-09T08:01:55.679Z,96365.53
2024-05-09T08:04:41.269Z,96369.47
2024-05-09T08:07:26.831Z,96363.78
2024-05-09T08:10:15.398Z,96359.97
2024-05-09T08:13:04.711Z,96350.59
2024-05-09T08:15:51.795Z,96342.16
2024-05-09T08:18:37.594Z,96350.19
2024-05-09T08:21:23.604Z,96348.44
2024-05-09T08:24:10.561Z,96344.63
2024-05-09T08:26:55.868Z,96339.28
2024-05-09T08:29:41.470Z,96344.09
2024-05-09T08:32:27.527Z,96353.84
2024-05-09T08:35:12.746Z,96346.63
2024-05-09T08:37:58.275Z,96341.63
2024-05-09T08:40:43.852Z,96345.44
2024-05-09T08:43:30.218Z,96349.16
2024-05-09T08:46:18.524Z,96351.16
2024-05-09T08:49:04.769Z,96338.56
2024-05-09T08:51:50.576Z,96335.31
2024-05-09T08:54:36.006Z,96340.44
2024-05-09T08:57:22.800Z,96346.22
2024-05-09T09:00:12.723Z,96350.16
2024-05-09T09:03:02.809Z,96341.09
2024-05-09T09:06:12.698Z,96345.97
2024-05-09T09:08:59.408Z,96343.88
2024-05-09T09:11:45.281Z,96350.16
2024-05-09T09:14:30.532Z,96342.56
2024-05-09T09:17:16.886Z,96356.06
2024-05-09T09:20:02.695Z,96357.84
2024-05-09T09:22:48.270Z,96347.72
2024-05-09T09:25:33.991Z,96344.66
2024-05-09T09:28:23.418Z,96355.47
2024-05-09T09:31:09.091Z,96343.72
2024-05-09T09:33:54.919Z,96338.81
2024-05-09T09:36:42.939Z,96332.19
2024-05-09T09:39:31.861Z,96340.50
2024-05-09T09:42:18.488Z,96337.91
2024-05-09T09:45:05.779Z,96333.81
2024-05-09T09:47:57.147Z,96339.25
2024-05-09T09:50:43.422Z,96335.00
2024-05-09T09:53:29.379Z,96326.44
2024-05-09T09:56:18.100Z,96330.06
2024-05-09T09:59:04.737Z,96332.91
2024-05-09T10:01:50.547Z,96329.38
2024-05-09T10:04:36.770Z,96323.09
2024-05-09T10:07:23.015Z,96332.31
2024-05-09T10:10:11.026Z,96334.41
2024-05-09T10:13:07.666Z,96336.84
2024-05-09T10:15:54.476Z,96324.72
2024-05-09T10:18:41.495Z,96334.81
2024-05-09T10:21:27.538Z,96335.56
2024-05-09T10:24:12.939Z,96338.16
2024-05-09T10:26:58.567Z,96328.41
2024-05-09T10:29:58.433Z,96341.06
2024-05-09T10:32:44.995Z,96326.22
2024-05-09T10:35:32.132Z,96326.06
2024-05-09T10:38:18.241Z,96329.94
2024-05-09T10:41:04.922Z,96332.28
2024-05-09T10:43:51.425Z,96324.00
2024-05-09T10:46:37.356Z,96324.63
2024-05-09T10:49:23.143Z,96323.53
2024-05-09T10:52:08.942Z,96316.66
2024-05-09T10:54:54.868Z,96334.47
2024-05-09T10:57:41.032Z,96320.41
2024-05-09T11:00:36.109Z,96315.47
2024-05-09T11:03:25.854Z,96323.03
2024-05-09T11:06:11.939Z,96320.59
2024-05-09T11:08:57.863Z,96319.06
2024-05-09T11:11:43.291Z,96317.28
2024-05-09T11:14:28.667Z,96324.31
2024-05-09T11:17:14.299Z,96312.69
2024-05-09T11:20:00.570Z,96316.75
2024-05-09T11:22:46.151Z,96327.75
2024-05-09T11:25:33.302Z,96315.69
2024-05-09T11:28:19.424Z,96317.28
2024-05-09T11:31:10.396Z,96313.72
2024-05-09T11:33:56.670Z,96313.09
2024-05-09T11:36:41.974Z,96304.31
2024-05-09T11:39:27.521Z,96305.59
2024-05-09T11:42:13.090Z,96292.97
2024-05-09T11:44:58.397Z,96296.25
2024-05-09T11:47:44.174Z,96293.09
2024-05-09T11:50:34.683Z,96298.00
2024-05-09T11:53:21.286Z,96297.84
2024-05-09T11:56:07.359Z,96296.00
2024-05-09T11:58:53.315Z,96300.66
2024-05-09T12:01:38.693Z,96294.88
2024-05-09T12:04:24.465Z,96292.47
2024-05-09T12:07:12.656Z,96294.41
2024-05-09T12:09:58.277Z,96293.31
2024-05-09T12:12:44.114Z,96295.94
2024-05-09T12:15:29.457Z,96289.63
2024-05-09T12:18:15.024Z,96299.19
2024-05-09T12:21:01.643Z,96289.56
2024-05-09T12:23:47.208Z,96293.84
2024-05-09T12:26:33.085Z,96288.38
2024-05-09T12:29:18.367Z,96285.06
2024-05-09T12:32:03.936Z,96276.25
2024-05-09T12:34:49.487Z,96277.06
2024-05-09T12:37:34.907Z,96282.44
2024-05-09T12:40:26.859Z,96281.97
2024-05-09T12:43:19.917Z,96291.88
2024-05-09T12:46:05.794Z,96279.66
2024-05-09T12:48:51.950Z,96262.75
2024-05-09T12:51:38.350Z,96272.66
2024-05-09T12:54:23.572Z,96272.28
2024-05-09T12:57:09.390Z,96274.69
2024-05-09T12:59:55.821Z,96279.75
2024-05-09T13:02:41.660Z,96274.19
2024-05-09T13:05:27.397Z,96271.63
2024-05-09T13:08:16.304Z,96270.56
2024-05-09T13:11:01.831Z,96263.19
2024-05-09T13:13:47.071Z,96274.66
2024-05-09T13:16:32.866Z,96270.31
2024-05-09T13:19:18.597Z,96264.41
2024-05-09T13:22:04.262Z,96259.69
2024-05-09T13:24:49.672Z,96259.78
2024-05-09T13:27:35.197Z,96257.38
2024-05-09T13:30:29.294Z,96247.69
2024-05-09T13:33:29.653Z,96260.91
2024-05-09T13:36:21.547Z,96257.88
2024-05-09T13:39:07.197Z,96259.16
2024-05-09T13:41:52.640Z,96252.22
2024-05-09T13:44:38.318Z,96254.44
2024-05-09T13:47:24.351Z,96250.97
2024-05-09T13:50:14.211Z,96244.22
2024-05-09T13:53:07.465Z,96246.94
2024-05-09T13:55:54.116Z,96248.09
2024-05-09T13:58:39.624Z,96236.91
2024-05-09T14:01:25.537Z,96243.59
2024-05-09T14:04:11.767Z,96238.50
2024-05-09T14:06:57.417Z,96245.22
2024-05-09T14:09:42.758Z,96245.63
2024-05-09T14:12:28.071Z,96252.84
2024-05-09T14:15:13.744Z,96248.16
2024-05-09T14:17:59.158Z,96235.31
2024-05-09T14:20:44.737Z,96231.56
2024-05-09T14:23:30.093Z,96237.81
2024-05-09T14:26:15.589Z,96239.97
2024-05-09T14:29:01.202Z,96236.44
2024-05-09T14:31:53.548Z,96232.69
2024-05-09T14:34:45.857Z,96229.44
2024-05-09T14:37:31.335Z,96235.09
2024-05-09T14:40:30.602Z,96233.28
2024-05-09T14:43:22.229Z,96232.34
2024-05-09T14:46:07.900Z,96236.06
2024-05-09T14:48:53.458Z,96227.97
2024-05-09T14:51:40.155Z,96223.69
2024-05-09T14:54:25.905Z,96223.13
2024-05-09T14:57:11.562Z,96233.41
2024-05-09T14:59:57.324Z,96224.81
2024-05-09T15:02:42.874Z,96231.28
2024-05-09T15:05:28.400Z,96223.69
2024-05-09T15:08:14.247Z,96215.53
2024-05-09T15:10:59.872Z,96224.72
2024-05-09T15:13:45.151Z,96211.25
2024-05-09T15:16:31.288Z,96215.63
2024-05-09T15:19:17.210Z,96216.69
2024-05-09T15:22:03.285Z,96208.09
2024-05-09T15:24:48.625Z,96211.53
2024-05-09T15:27:34.296Z,96219.25
2024-05-09T15:30:28.155Z,96207.88
2024-05-09T15:33:17.451Z,96215.69
2024-05-09T15:36:10.204Z,96217.31
2024-05-09T15:39:03.088Z,96208.41
2024-05-09T15:41:56.447Z,96213.19
2024-05-09T15:44:42.089Z,96203.75
2024-05-09T15:47:28.143Z,96208.91
2024-05-09T15:50:20.487Z,96212.75
2024-05-09T15:53:14.045Z,96207.88
2024-05-09T15:56:28.483Z,96204.09
2024-05-09T15:59:16.530Z,96208.31
2024-05-09T16:02:11.556Z,96211.56
2024-05-09T16:04:57.496Z,96206.13
2024-05-09T16:07:42.758Z,96211.69
2024-05-09T16:10:32.748Z,96204.78
2024-05-09T16:24:11.175Z,96197.72
2024-05-09T16:26:57.565Z,96199.84
2024-05-09T16:29:44.188Z,96194.47
2024-05-09T16:32:29.975Z,96199.59
2024-05-09T16:35:16.138Z,96199.03
2024-05-09T16:38:03.116Z,96198.72
2024-05-09T16:40:48.725Z,96203.59
2024-05-09T16:43:34.507Z,96197.94
2024-05-09T16:46:20.276Z,96202.44
2024-05-09T16:49:05.909Z,96209.84
2024-05-09T16:51:51.332Z,96202.22
2024-05-09T16:54:37.062Z,96205.19
2024-05-09T16:57:22.566Z,96207.56
2024-05-09T17:00:14.856Z,96211.06
2024-05-09T17:03:07.968Z,96219.28
2024-05-09T17:05:53.730Z,96216.81
2024-05-09T17:08:40.498Z,96216.31
2024-05-09T17:11:26.131Z,96213.34
2024-05-09T17:14:11.734Z,96209.84
2024-05-09T17:16:57.369Z,96219.47
2024-05-09T17:19:44.968Z,96212.38
2024-05-09T17:22:31.798Z,96219.78
2024-05-09T17:25:17.263Z,96216.91
2024-05-09T17:28:07.680Z,96218.16
2024-05-09T17:30:53.676Z,96217.72
2024-05-09T17:33:39.156Z,96222.41
2024-05-09T17:36:25.079Z,96219.50
2024-05-09T17:39:10.925Z,96224.41
2024-05-09T17:41:56.307Z,96231.50
2024-05-09T17:44:41.671Z,96229.94
2024-05-09T17:47:27.265Z,96231.25
2024-05-09T17:50:17.370Z,96237.31
2024-05-09T17:53:10.714Z,96240.53
2024-05-09T17:55:56.827Z,96242.47
2024-05-09T17:58:42.934Z,96235.72
2024-05-09T18:01:28.323Z,96243.09
2024-05-09T18:04:14.127Z,96246.28
2024-05-09T18:07:00.070Z,96243.22
2024-05-09T18:09:45.949Z,96244.44
2024-05-09T18:12:31.551Z,96252.13
2024-05-09T18:15:17.094Z,96253.22
2024-05-09T18:18:03.643Z,96254.69
2024-05-09T18:20:49.495Z,96259.94
2024-05-09T18:23:34.994Z,96263.63
2024-05-09T18:26:20.504Z,96268.16
2024-05-09T18:29:06.026Z,96268.81
2024-05-09T18:31:51.561Z,96275.28
2024-05-09T18:34:37.249Z,96278.69
2024-05-09T18:37:23.091Z,96281.69
2024-05-09T18:40:12.205Z,96283.97
2024-05-09T18:43:06.747Z,96293.72
2024-05-09T18:45:53.902Z,96291.22
2024-05-09T18:48:39.728Z,96293.47
2024-05-09T18:51:25.244Z,96291.97
2024-05-09T18:54:10.691Z,96295.97
2024-05-09T18:56:56.272Z,96303.28
2024-05-09T18:59:41.847Z,96299.94
2024-05-09T19:02:27.288Z,96306.78
2024-05-09T19:05:13.120Z,96306.69
2024-05-09T19:07:58.874Z,96312.06
2024-05-09T19:10:47.457Z,96315.81
2024-05-09T19:13:33.280Z,96316.97
2024-05-09T19:16:19.310Z,96324.81
2024-05-09T19:19:05.604Z,96328.16
2024-05-09T19:21:51.028Z,96322.31
2024-05-09T19:24:36.864Z,96330.78
2024-05-09T19:27:22.208Z,96332.06
2024-05-09T19:30:17.394Z,96334.50
2024-05-09T19:33:12.893Z,96331.31
2024-05-09T19:35:59.380Z,96334.16
2024-05-09T19:38:45.176Z,96328.50
2024-05-09T19:41:30.704Z,96331.38
2024-05-09T19:44:16.442Z,96329.75
2024-05-09T19:47:02.160Z,96339.19
2024-05-09T19:49:47.705Z,96335.28
2024-05-09T19:52:33.557Z,96340.81
2024-05-09T19:55:19.252Z,96344.72
2024-05-09T19:58:07.152Z,96350.03
2024-05-09T20:00:53.167Z,96347.59
2024-05-09T20:03:38.917Z,96343.50
2024-05-09T20:06:25.241Z,96351.88
2024-05-09T20:09:10.988Z,96344.72
2024-05-09T20:11:56.698Z,96350.22
2024-05-09T20:14:42.358Z,96347.38
2024-05-09T20:17:28.032Z,96351.84
2024-05-09T20:20:20.320Z,96351.00
2024-05-09T20:23:14.355Z,96350.19
2024-05-09T20:25:59.753Z,96355.06
2024-05-09T20:28:46.368Z,96356.88
2024-05-09T20:31:31.713Z,96353.38
2024-05-09T20:34:17.708Z,96352.94
2024-05-09T20:37:10.306Z,96348.25
2024-05-09T20:39:56.252Z,96354.53
2024-05-09T20:42:44.870Z,96356.28
2024-05-09T20:45:30.278Z,96348.13
2024-05-09T20:48:15.853Z,96348.50
2024-05-09T20:51:01.331Z,96345.19
2024-05-09T20:53:47.132Z,96354.09
2024-05-09T20:56:32.877Z,96352.88
2024-05-09T20:59:18.600Z,96350.19
2024-05-09T21:02:04.157Z,96359.53
2024-05-09T21:04:49.598Z,96352.53
2024-05-09T21:07:35.436Z,96354.78
2024-05-09T21:10:22.828Z,96353.94
2024-05-09T21:13:08.659Z,96356.34
2024-05-09T21:15:54.140Z,96352.84
2024-05-09T21:18:39.842Z,96350.94
2024-05-09T21:21:25.481Z,96352.72
2024-05-09T21:24:10.905Z,96350.25
2024-05-09T21:26:56.510Z,96351.88
2024-05-09T21:29:41.969Z,96359.56
2024-05-09T21:32:27.424Z,96355.84
2024-05-09T21:35:12.819Z,96366.38
2024-05-09T21:37:58.251Z,96358.19
2024-05-09T21:40:44.227Z,96362.22
2024-05-09T21:43:31.629Z,96356.69
2024-05-09T21:46:17.093Z,96365.78
2024-05-09T21:49:03.298Z,96362.91
2024-05-09T21:51:49.627Z,96367.94
2024-05-09T21:54:35.304Z,96365.88
2024-05-09T21:57:21.910Z,96367.63
2024-05-09T22:00:25.117Z,96371.03
2024-05-09T22:03:18.164Z,96372.41
2024-05-09T22:06:03.735Z,96373.78
2024-05-09T22:08:49.168Z,96373.50
2024-05-09T22:11:35.022Z,96372.28
2024-05-09T22:14:21.590Z,96373.00
2024-05-09T22:17:07.026Z,96375.34
2024-05-09T22:19:53.063Z,96373.47
2024-05-09T22:22:38.656Z,96378.28
2024-05-09T22:25:26.077Z,96372.56
2024-05-09T22:28:15.500Z,96369.66
2024-05-09T22:31:00.998Z,96357.56
2024-05-09T22:33:48.255Z,96367.47
2024-05-09T22:36:34.071Z,96368.88
2024-05-09T22:39:19.623Z,96365.97
2024-05-09T22:42:05.219Z,96365.88
2024-05-09T22:44:50.519Z,96368.06
2024-05-09T22:47:35.930Z,96367.78
2024-05-09T22:50:26.811Z,96369.16
2024-05-09T22:53:16.448Z,96371.31
2024-05-09T22:56:01.864Z,96369.69
2024-05-09T22:58:47.333Z,96375.16
2024-05-09T23:01:33.367Z,96367.97
2024-05-09T23:04:51.099Z,96363.41
2024-05-09T23:07:38.797Z,96373.97
2024-05-09T23:10:31.593Z,96372.50
2024-05-09T23:13:21.235Z,96372.03
2024-05-09T23:16:07.180Z,96363.84
2024-05-09T23:18:52.556Z,96362.75
2024-05-09T23:21:40.147Z,96361.41
2024-05-09T23:24:25.716Z,96359.09
2024-05-09T23:27:11.468Z,96363.28
2024-05-09T23:29:57.356Z,96360.00
2024-05-09T23:32:42.997Z,96360.88
2024-05-09T23:35:28.769Z,96361.44
2024-05-09T23:38:14.534Z,96364.25
2024-05-09T23:41:00.031Z,96359.16
2024-05-09T23:43:45.484Z,96360.59
2024-05-09T23:46:31.285Z,96367.34
2024-05-09T23:49:16.659Z,96368.16
2024-05-09T23:52:02.112Z,96367.16
2024-05-09T23:54:47.598Z,96366.72
2024-05-09T23:57:33.336Z,96367.66
